createdAt,value
2023-02-03T00:00:39.457Z,6.79
2023-02-03T00:03:08.090Z,6.85
2023-02-03T00:05:35.644Z,6.60
2023-02-03T00:08:05.252Z,6.52
2023-02-03T00:10:33.846Z,6.41
2023-02-03T00:13:00.777Z,6.35
2023-02-03T00:15:27.477Z,6.03
2023-02-03T00:17:54.137Z,5.93
2023-02-03T00:20:20.806Z,5.96
2023-02-03T00:22:47.537Z,5.90
2023-02-03T00:25:14.409Z,5.93
2023-02-03T00:27:42.035Z,5.98
2023-02-03T00:30:09.622Z,6.01
2023-02-03T00:32:37.248Z,6.12
2023-02-03T00:35:04.779Z,6.23
2023-02-03T00:37:34.453Z,6.19
2023-02-03T00:40:02.103Z,6.35
2023-02-03T00:42:29.636Z,6.26
2023-02-03T00:44:56.279Z,6.33
2023-02-03T00:47:22.951Z,6.32
2023-02-03T00:49:50.151Z,6.39
2023-02-03T00:52:16.868Z,6.12
2023-02-03T00:54:43.578Z,6.23
2023-02-03T00:57:10.242Z,6.10
2023-02-03T00:59:36.907Z,6.03
2023-02-03T01:02:03.611Z,5.88
2023-02-03T01:04:30.929Z,5.77
2023-02-03T01:06:57.948Z,5.76
2023-02-03T01:09:25.124Z,5.71
2023-02-03T01:11:52.755Z,5.70
2023-02-03T01:14:20.287Z,5.69
2023-02-03T01:16:46.973Z,5.86
2023-02-03T01:19:13.616Z,5.85
2023-02-03T01:21:40.259Z,5.99
2023-02-03T01:24:06.906Z,6.11
2023-02-03T01:26:33.623Z,6.15
2023-02-03T01:29:00.403Z,6.17
2023-02-03T01:31:28.844Z,6.17
2023-02-03T01:34:00.220Z,6.19
2023-02-03T01:36:43.402Z,6.20
2023-02-03T01:44:47.690Z,6.28
2023-02-03T01:47:20.288Z,6.36
2023-02-03T01:49:51.613Z,6.41
2023-02-03T01:52:18.496Z,6.41
2023-02-03T01:54:46.109Z,6.43
2023-02-03T01:57:16.715Z,6.44
2023-02-03T01:59:43.450Z,6.45
2023-02-03T02:02:10.133Z,6.47
2023-02-03T02:05:04.803Z,6.47
2023-02-03T02:07:32.288Z,6.48
2023-02-03T02:09:58.955Z,6.48
2023-02-03T02:12:25.613Z,6.52
2023-02-03T02:14:52.239Z,6.56
2023-02-03T02:17:48.957Z,6.62
2023-02-03T02:20:32.654Z,6.60
2023-02-03T02:23:46.868Z,6.59
2023-02-03T02:26:42.720Z,6.55
2023-02-03T02:29:27.153Z,6.51
2023-02-03T02:32:05.959Z,6.51
2023-02-03T02:35:00.402Z,6.51
2023-02-03T02:37:51.029Z,6.53
2023-02-03T02:40:37.927Z,6.53
2023-02-03T02:43:21.318Z,6.58
2023-02-03T02:45:52.882Z,6.59
2023-02-03T02:48:27.099Z,6.67
2023-02-03T02:50:55.299Z,6.64
2023-02-03T02:53:24.624Z,6.66
2023-02-03T02:55:51.789Z,6.68
2023-02-03T02:58:18.508Z,6.69
2023-02-03T03:00:45.155Z,6.72
2023-02-03T03:03:21.792Z,6.69
2023-02-03T03:06:30.753Z,6.66
2023-02-03T03:09:12.284Z,6.72
2023-02-03T03:11:45.516Z,6.79
2023-02-03T03:14:12.173Z,6.77
2023-02-03T03:16:39.262Z,6.79
2023-02-03T03:22:13.228Z,7.05
2023-02-03T03:24:50.980Z,6.93
2023-02-03T03:27:22.155Z,6.88
2023-02-03T03:29:51.495Z,6.87
2023-02-03T03:32:18.237Z,6.85
2023-02-03T03:34:44.896Z,6.85
2023-02-03T03:37:29.100Z,6.82
2023-02-03T03:39:57.623Z,6.95
2023-02-03T03:42:32.017Z,7.00
2023-02-03T03:45:18.554Z,6.87
2023-02-03T03:47:55.632Z,6.94
2023-02-03T03:50:26.007Z,6.89
2023-02-03T03:52:53.166Z,6.86
2023-02-03T03:55:19.846Z,6.83
2023-02-03T03:57:59.274Z,6.73
2023-02-03T04:00:26.764Z,6.78
2023-02-03T04:02:54.396Z,6.88
2023-02-03T04:05:22.374Z,6.81
2023-02-03T04:07:49.046Z,6.79
2023-02-03T04:10:38.359Z,6.75
2023-02-03T04:13:05.192Z,6.71
2023-02-03T04:15:31.887Z,6.60
2023-02-03T04:17:58.541Z,6.47
2023-02-03T04:20:29.472Z,6.35
2023-02-03T04:22:56.658Z,6.29
2023-02-03T04:25:29.707Z,6.20
2023-02-03T04:31:08.956Z,5.90
2023-02-03T04:33:49.911Z,5.91
2023-02-03T04:39:40.638Z,6.14
2023-02-03T04:47:41.526Z,6.35
2023-02-03T04:50:08.500Z,6.39
2023-02-03T04:52:35.183Z,6.34
2023-02-03T04:55:01.867Z,6.44
2023-02-03T04:57:28.495Z,6.49
2023-02-03T04:59:55.146Z,6.50
2023-02-03T05:02:22.439Z,6.41
2023-02-03T05:04:50.020Z,6.49
2023-02-03T05:07:17.001Z,6.46
2023-02-03T05:09:43.641Z,6.47
2023-02-03T05:12:10.323Z,6.45
2023-02-03T05:14:38.480Z,6.49
2023-02-03T05:17:05.158Z,6.43
2023-02-03T05:19:31.850Z,6.37
2023-02-03T05:22:02.350Z,6.37
2023-02-03T05:24:29.060Z,6.31
2023-02-03T05:26:55.826Z,6.28
2023-02-03T05:29:22.531Z,6.32
2023-02-03T05:31:50.204Z,6.36
2023-02-03T05:34:17.008Z,6.40
2023-02-03T05:36:43.646Z,6.39
2023-02-03T05:39:10.290Z,6.35
2023-02-03T05:41:36.964Z,6.44
2023-02-03T05:44:04.165Z,6.50
2023-02-03T05:46:30.806Z,6.44
2023-02-03T05:48:57.465Z,6.23
2023-02-03T05:51:24.125Z,6.23
2023-02-03T05:53:50.768Z,6.25
2023-02-03T05:56:17.568Z,6.28
2023-02-03T05:58:44.199Z,6.28
2023-02-03T06:01:10.832Z,6.17
2023-02-03T06:03:37.599Z,6.19
2023-02-03T06:06:04.247Z,6.11
2023-02-03T06:08:30.916Z,5.90
2023-02-03T06:10:58.689Z,5.98
2023-02-03T06:13:25.325Z,5.96
2023-02-03T06:15:51.947Z,5.92
2023-02-03T06:18:18.596Z,5.82
2023-02-03T06:20:45.662Z,5.75
2023-02-03T06:23:12.283Z,5.69
2023-02-03T06:25:39.009Z,5.64
2023-02-03T06:28:05.728Z,5.62
2023-02-03T06:30:32.448Z,5.57
2023-02-03T06:32:59.109Z,5.51
2023-02-03T06:35:25.762Z,5.50
2023-02-03T06:37:52.397Z,5.50
2023-02-03T06:40:19.028Z,5.47
2023-02-03T06:42:46.570Z,5.38
2023-02-03T06:45:13.331Z,5.29
2023-02-03T06:47:41.204Z,5.33
2023-02-03T06:50:08.407Z,5.14
2023-02-03T06:52:35.029Z,4.89
2023-02-03T06:55:01.687Z,4.98
2023-02-03T06:57:28.348Z,4.93
2023-02-03T06:59:55.022Z,4.99
2023-02-03T07:02:21.725Z,4.97
2023-02-03T07:04:48.391Z,4.90
2023-02-03T07:07:15.076Z,4.89
2023-02-03T07:09:42.196Z,4.90
2023-02-03T07:12:08.921Z,4.71
2023-02-03T07:14:35.559Z,4.72
2023-02-03T07:17:02.819Z,4.43
2023-02-03T07:19:29.470Z,4.53
2023-02-03T07:21:56.170Z,4.36
2023-02-03T07:24:22.818Z,4.16
2023-02-03T07:26:49.428Z,4.02
2023-02-03T07:29:16.091Z,4.00
2023-02-03T07:31:42.829Z,4.09
2023-02-03T07:34:09.536Z,4.26
2023-02-03T07:36:36.182Z,4.26
2023-02-03T07:39:02.928Z,4.48
2023-02-03T07:41:29.576Z,4.49
2023-02-03T07:43:56.216Z,4.57
2023-02-03T07:46:22.871Z,4.60
2023-02-03T07:48:49.905Z,4.78
2023-02-03T07:51:16.553Z,4.86
2023-02-03T07:53:43.213Z,4.99
2023-02-03T07:56:09.882Z,5.16
2023-02-03T07:58:36.516Z,5.44
2023-02-03T08:01:12.875Z,6.22
2023-02-03T08:03:40.049Z,7.47
2023-02-03T08:06:07.064Z,8.40
2023-02-03T08:08:33.681Z,9.47
2023-02-03T08:11:00.306Z,10.26
2023-02-03T08:13:26.937Z,11.00
2023-02-03T08:15:53.568Z,12.16
2023-02-03T08:18:20.182Z,13.29
2023-02-03T08:20:47.409Z,14.45
2023-02-03T08:23:14.059Z,14.93
2023-02-03T08:25:40.689Z,15.86
2023-02-03T08:28:07.595Z,16.58
2023-02-03T08:30:34.324Z,16.63
2023-02-03T08:33:00.999Z,17.45
2023-02-03T08:35:27.670Z,18.40
2023-02-03T08:37:54.326Z,19.33
2023-02-03T08:40:20.944Z,19.72
2023-02-03T08:42:47.596Z,20.33
2023-02-03T08:45:14.253Z,20.90
2023-02-03T08:47:40.952Z,21.14
2023-02-03T08:50:08.054Z,21.42
2023-02-03T08:52:34.721Z,21.80
2023-02-03T08:55:01.392Z,21.76
2023-02-03T08:57:28.041Z,21.70
2023-02-03T08:59:54.656Z,21.40
2023-02-03T09:02:21.338Z,20.93
2023-02-03T09:04:48.006Z,21.49
2023-02-03T09:07:14.698Z,21.23
2023-02-03T09:09:41.326Z,20.84
2023-02-03T09:12:08.095Z,21.27
2023-02-03T09:14:35.072Z,21.58
2023-02-03T09:17:02.088Z,21.65
2023-02-03T09:19:28.843Z,21.82
2023-02-03T09:21:55.491Z,22.07
2023-02-03T09:24:22.215Z,21.87
2023-02-03T09:26:48.888Z,21.35
2023-02-03T09:29:15.517Z,21.50
2023-02-03T09:31:42.183Z,21.07
2023-02-03T09:34:09.101Z,21.60
2023-02-03T09:36:35.825Z,21.66
2023-02-03T09:39:02.505Z,22.10
2023-02-03T09:41:54.163Z,22.53
2023-02-03T09:44:44.260Z,22.89
2023-02-03T09:47:20.139Z,23.46
2023-02-03T09:49:57.106Z,23.64
2023-02-03T09:52:26.060Z,23.45
2023-02-03T09:54:55.466Z,22.68
2023-02-03T09:57:24.105Z,21.58
2023-02-03T09:59:50.776Z,20.04
2023-02-03T10:02:40.013Z,19.04
2023-02-03T10:05:18.425Z,18.42
2023-02-03T10:08:20.111Z,17.71
2023-02-03T10:11:15.166Z,17.07
2023-02-03T10:14:03.367Z,16.58
2023-02-03T10:16:48.797Z,15.63
2023-02-03T10:19:24.486Z,14.80
2023-02-03T10:21:58.582Z,14.17
2023-02-03T10:24:42.320Z,13.97
2023-02-03T10:27:16.361Z,13.76
2023-02-03T10:29:43.064Z,13.43
2023-02-03T10:32:10.672Z,13.19
2023-02-03T10:34:37.403Z,13.09
2023-02-03T10:37:16.068Z,12.87
2023-02-03T10:39:49.774Z,12.91
2023-02-03T10:42:16.412Z,12.84
2023-02-03T10:44:48.111Z,12.49
2023-02-03T10:47:24.157Z,12.46
2023-02-03T10:49:51.211Z,12.05
2023-02-03T10:52:36.126Z,11.62
2023-02-03T10:55:07.110Z,11.30
2023-02-03T10:57:36.109Z,11.33
2023-02-03T11:00:23.356Z,11.30
2023-02-03T11:03:01.685Z,11.18
2023-02-03T11:05:28.381Z,11.38
2023-02-03T11:07:55.605Z,11.43
2023-02-03T11:10:29.085Z,11.54
2023-02-03T11:13:10.615Z,11.03
2023-02-03T11:15:37.260Z,11.09
2023-02-03T11:18:03.914Z,10.76
2023-02-03T11:20:30.877Z,10.64
2023-02-03T11:23:05.050Z,10.05
2023-02-03T11:25:32.525Z,10.02
2023-02-03T11:28:03.845Z,10.18
2023-02-03T11:30:30.952Z,10.15
2023-02-03T11:33:00.632Z,10.45
2023-02-03T11:35:28.150Z,10.67
2023-02-03T11:37:55.991Z,10.51
2023-02-03T11:40:29.606Z,10.67
2023-02-03T11:42:56.427Z,10.71
2023-02-03T11:45:39.707Z,10.84
2023-02-03T11:48:14.615Z,10.91
2023-02-03T11:50:53.622Z,10.92
2023-02-03T11:53:27.321Z,10.96
2023-02-03T11:56:09.074Z,10.97
2023-02-03T11:58:46.396Z,11.04
2023-02-03T12:01:25.542Z,11.06
2023-02-03T12:04:20.165Z,11.04
2023-02-03T12:07:01.759Z,10.97
2023-02-03T12:09:50.744Z,10.83
2023-02-03T12:12:41.509Z,10.91
2023-02-03T12:15:30.522Z,11.05
2023-02-03T12:18:07.137Z,11.08
2023-02-03T12:20:47.043Z,11.13
2023-02-03T12:23:25.419Z,11.12
2023-02-03T12:26:06.994Z,10.94
2023-02-03T12:29:04.674Z,10.99
2023-02-03T12:31:53.753Z,10.99
2023-02-03T12:34:31.801Z,10.84
2023-02-03T12:37:06.767Z,10.87
2023-02-03T12:39:46.922Z,11.00
2023-02-03T12:42:45.177Z,10.93
2023-02-03T12:45:14.167Z,10.79
2023-02-03T12:47:43.559Z,10.90
2023-02-03T12:50:17.159Z,10.87
2023-02-03T12:52:52.869Z,11.01
2023-02-03T12:55:28.397Z,10.93
2023-02-03T12:57:58.299Z,10.85
2023-02-03T13:00:37.520Z,10.89
2023-02-03T13:03:29.019Z,10.92
2023-02-03T13:06:04.573Z,10.89
2023-02-03T13:08:39.280Z,10.89
2023-02-03T13:11:15.521Z,10.96
2023-02-03T13:14:11.676Z,11.12
2023-02-03T13:16:40.732Z,11.15
2023-02-03T13:19:11.406Z,11.13
2023-02-03T13:21:38.106Z,11.14
2023-02-03T13:24:04.952Z,11.13
2023-02-03T13:26:50.192Z,11.26
2023-02-03T13:29:38.355Z,11.30
2023-02-03T13:32:14.230Z,11.26
2023-02-03T13:34:52.178Z,11.26
2023-02-03T13:37:37.284Z,11.26
2023-02-03T13:40:34.754Z,11.22
2023-02-03T13:43:03.549Z,11.22
2023-02-03T13:45:32.656Z,11.21
2023-02-03T13:48:08.144Z,11.25
2023-02-03T13:50:34.793Z,11.22
2023-02-03T13:53:06.541Z,11.25
2023-02-03T13:55:39.591Z,11.31
2023-02-03T13:58:08.051Z,11.30
2023-02-03T14:00:43.800Z,11.35
2023-02-03T14:03:26.086Z,11.28
2023-02-03T14:05:53.200Z,11.40
2023-02-03T14:08:25.558Z,11.41
2023-02-03T14:11:29.619Z,11.46
2023-02-03T14:14:08.263Z,11.49
2023-02-03T14:16:55.202Z,11.54
2023-02-03T14:19:21.982Z,11.55
2023-02-03T14:21:53.004Z,11.52
2023-02-03T14:24:19.628Z,11.56
2023-02-03T14:26:47.939Z,11.47
2023-02-03T14:29:34.798Z,11.39
2023-02-03T14:32:11.774Z,11.48
2023-02-03T14:34:45.289Z,11.42
2023-02-03T14:37:12.820Z,11.40
2023-02-03T14:39:56.530Z,11.38
2023-02-03T14:42:53.880Z,11.40
2023-02-03T14:45:47.359Z,11.25
2023-02-03T14:48:50.138Z,11.36
2023-02-03T14:51:19.600Z,11.28
2023-02-03T14:53:46.107Z,11.18
2023-02-03T14:56:31.297Z,11.13
2023-02-03T14:59:02.812Z,11.12
2023-02-03T15:01:35.529Z,11.10
2023-02-03T15:04:20.685Z,11.05
2023-02-03T15:06:49.018Z,11.02
2023-02-03T15:09:26.289Z,11.07
2023-02-03T15:11:52.937Z,11.03
2023-02-03T15:14:26.743Z,11.05
2023-02-03T15:17:10.593Z,10.86
2023-02-03T15:19:40.787Z,10.85
2023-02-03T15:22:24.639Z,10.89
2023-02-03T15:24:52.192Z,10.85
2023-02-03T15:27:27.099Z,10.70
2023-02-03T15:29:53.972Z,10.68
2023-02-03T15:32:29.002Z,10.79
2023-02-03T15:34:55.756Z,10.68
2023-02-03T15:37:47.715Z,10.57
2023-02-03T15:40:19.072Z,10.47
2023-02-03T15:42:54.578Z,10.36
2023-02-03T15:45:34.724Z,10.45
2023-02-03T15:48:17.367Z,10.45
2023-02-03T15:50:59.939Z,10.32
2023-02-03T15:53:45.294Z,10.20
2023-02-03T15:56:19.423Z,10.15
2023-02-03T15:58:46.067Z,10.05
2023-02-03T16:01:13.642Z,9.96
2023-02-03T16:03:44.185Z,9.94
2023-02-03T16:06:33.664Z,9.94
2023-02-03T16:09:00.335Z,9.82
2023-02-03T16:11:35.820Z,9.77
2023-02-03T16:14:05.659Z,9.78
2023-02-03T16:16:38.194Z,9.74
2023-02-03T16:19:06.724Z,9.67
2023-02-03T16:21:35.053Z,9.63
2023-02-03T16:24:02.832Z,9.61
2023-02-03T16:26:30.817Z,9.55
2023-02-03T16:29:09.571Z,9.53
2023-02-03T16:31:36.358Z,9.49
2023-02-03T16:34:15.588Z,9.44
2023-02-03T16:36:43.241Z,9.44
2023-02-03T16:39:11.471Z,9.43
2023-02-03T16:41:38.166Z,9.39
2023-02-03T16:44:04.871Z,9.40
2023-02-03T16:46:31.515Z,9.35
2023-02-03T16:48:58.181Z,9.25
2023-02-03T16:51:24.919Z,9.18
2023-02-03T16:53:51.631Z,9.07
2023-02-03T16:56:18.584Z,8.90
2023-02-03T16:58:45.219Z,8.78
2023-02-03T17:01:11.910Z,8.72
2023-02-03T17:03:38.687Z,8.62
2023-02-03T17:06:09.212Z,8.54
2023-02-03T17:08:35.896Z,8.48
2023-02-03T17:11:07.358Z,8.44
2023-02-03T17:13:34.061Z,8.39
2023-02-03T17:16:00.888Z,8.37
2023-02-03T17:18:27.628Z,8.34
2023-02-03T17:20:54.267Z,8.21
2023-02-03T17:23:20.936Z,8.10
2023-02-03T17:25:48.512Z,8.08
2023-02-03T17:28:15.236Z,8.03
2023-02-03T17:30:42.105Z,7.99
2023-02-03T17:33:08.946Z,8.03
2023-02-03T17:35:35.623Z,8.03
2023-02-03T17:38:02.265Z,8.04
2023-02-03T17:54:11.780Z,7.82
2023-02-03T17:56:38.458Z,7.71
2023-02-03T17:59:05.322Z,7.66
2023-02-03T18:01:32.073Z,7.68
2023-02-03T18:03:59.889Z,7.59
2023-02-03T18:06:27.583Z,7.59
2023-02-03T18:08:54.488Z,7.60
2023-02-03T18:11:21.744Z,7.58
2023-02-03T18:13:48.815Z,7.64
2023-02-03T18:16:20.555Z,7.53
2023-02-03T18:18:47.280Z,7.44
2023-02-03T18:21:15.070Z,7.41
2023-02-03T18:23:42.151Z,7.39
2023-02-03T18:26:10.044Z,7.56
2023-02-03T18:28:36.805Z,7.59
2023-02-03T18:31:05.191Z,7.51
2023-02-03T18:33:32.064Z,7.45
2023-02-03T18:35:58.897Z,7.41
2023-02-03T18:38:30.155Z,7.33
2023-02-03T18:40:56.928Z,7.28
2023-02-03T18:43:23.572Z,7.25
2023-02-03T18:45:50.242Z,7.20
2023-02-03T18:48:16.965Z,7.23
2023-02-03T18:50:43.801Z,7.26
2023-02-03T18:53:10.696Z,7.32
2023-02-03T18:55:41.624Z,7.20
2023-02-03T18:58:08.339Z,7.19
2023-02-03T19:00:35.025Z,7.10
2023-02-03T19:03:01.715Z,7.02
2023-02-03T19:05:28.373Z,7.05
2023-02-03T19:07:55.062Z,6.97
2023-02-03T19:10:21.708Z,6.94
2023-02-03T19:12:48.340Z,6.99
2023-02-03T19:15:15.122Z,7.01
2023-02-03T19:17:41.763Z,6.90
2023-02-03T19:20:09.029Z,6.85
2023-02-03T19:22:35.688Z,6.80
2023-02-03T19:25:02.450Z,6.79
2023-02-03T19:27:29.101Z,6.85
2023-02-03T19:29:56.729Z,6.84
2023-02-03T19:32:23.459Z,6.85
2023-02-03T19:34:50.110Z,6.77
2023-02-03T19:37:16.801Z,6.72
2023-02-03T19:39:43.436Z,6.61
2023-02-03T19:42:10.114Z,6.53
2023-02-03T19:44:36.801Z,6.55
2023-02-03T19:47:03.746Z,6.53
2023-02-03T19:49:30.582Z,6.53
2023-02-03T19:51:57.291Z,6.48
2023-02-03T19:54:24.390Z,6.53
2023-02-03T19:56:54.292Z,6.65
2023-02-03T19:59:20.957Z,6.75
2023-02-03T20:01:47.878Z,6.81
2023-02-03T20:04:14.575Z,6.80
2023-02-03T20:06:41.251Z,6.78
2023-02-03T20:09:07.919Z,6.80
2023-02-03T20:11:34.537Z,6.82
2023-02-03T20:14:01.154Z,6.83
2023-02-03T20:16:27.844Z,6.81
2023-02-03T20:18:54.552Z,6.83
2023-02-03T20:21:21.187Z,6.85
2023-02-03T20:23:47.813Z,6.82
2023-02-03T20:26:14.494Z,6.84
2023-02-03T20:28:41.156Z,6.80
2023-02-03T20:31:08.027Z,6.76
2023-02-03T20:33:34.750Z,6.72
2023-02-03T20:36:01.381Z,6.78
2023-02-03T20:38:28.051Z,6.77
2023-02-03T20:40:54.733Z,6.73
2023-02-03T20:43:23.384Z,6.72
2023-02-03T20:45:50.104Z,6.72
2023-02-03T20:48:17.352Z,6.76
2023-02-03T20:50:44.467Z,6.73
2023-02-03T20:53:21.120Z,6.72
2023-02-03T20:55:48.085Z,6.72
2023-02-03T20:58:21.650Z,6.70
2023-02-03T21:00:48.331Z,6.66
2023-02-03T21:03:15.485Z,6.64
2023-02-03T21:05:43.085Z,6.67
2023-02-03T21:08:14.458Z,6.64
2023-02-03T21:10:41.077Z,6.66
2023-02-03T21:13:23.100Z,6.67
2023-02-03T21:15:50.840Z,6.60
2023-02-03T21:18:52.611Z,6.60
2023-02-03T21:21:45.214Z,6.63
2023-02-03T21:24:27.719Z,6.61
2023-02-03T21:26:54.416Z,6.57
2023-02-03T21:29:23.744Z,6.57
2023-02-03T21:31:50.441Z,6.56
2023-02-03T21:34:32.894Z,6.56
2023-02-03T21:37:07.799Z,6.51
2023-02-03T21:39:34.506Z,6.56
2023-02-03T21:42:23.467Z,6.51
2023-02-03T21:44:50.101Z,6.50
2023-02-03T21:47:18.084Z,6.48
2023-02-03T21:49:44.733Z,6.48
2023-02-03T21:52:14.505Z,6.48
2023-02-03T21:54:41.590Z,6.48
2023-02-03T21:57:12.767Z,6.47
2023-02-03T21:59:39.910Z,6.26
2023-02-03T22:02:40.300Z,6.07
2023-02-03T22:05:15.284Z,5.97
2023-02-03T22:07:42.025Z,6.04
2023-02-03T22:10:09.044Z,6.05
2023-02-03T22:12:35.721Z,6.01
2023-02-03T22:15:02.349Z,5.95
2023-02-03T22:17:29.008Z,5.92
2023-02-03T22:19:55.734Z,5.92
2023-02-03T22:22:22.362Z,5.98
2023-02-03T22:24:49.139Z,6.07
2023-02-03T22:27:15.767Z,6.05
2023-02-03T22:29:42.484Z,6.11
2023-02-03T22:32:09.132Z,5.92
2023-02-03T22:34:35.796Z,5.97
2023-02-03T22:37:02.439Z,5.78
2023-02-03T22:39:29.274Z,5.79
2023-02-03T22:41:55.900Z,5.65
2023-02-03T22:44:22.534Z,5.50
2023-02-03T22:46:49.208Z,5.58
2023-02-03T22:49:17.851Z,5.38
2023-02-03T22:51:45.437Z,5.41
2023-02-03T22:54:13.036Z,5.37
2023-02-03T22:56:40.870Z,5.38
2023-02-03T22:59:07.528Z,5.28
2023-02-03T23:01:34.811Z,5.30
2023-02-03T23:04:02.424Z,5.39
2023-02-03T23:06:31.015Z,5.44
2023-02-03T23:08:58.832Z,5.32
2023-02-03T23:11:26.221Z,5.28
2023-02-03T23:13:53.840Z,5.36
2023-02-03T23:16:21.417Z,5.39
2023-02-03T23:18:48.160Z,5.38
2023-02-03T23:21:14.829Z,5.54
2023-02-03T23:23:43.196Z,5.66
2023-02-03T23:26:10.780Z,5.67
2023-02-03T23:28:38.386Z,5.68
2023-02-03T23:31:06.122Z,5.79
2023-02-03T23:33:33.580Z,5.66
2023-02-03T23:36:01.170Z,5.49
2023-02-03T23:38:28.626Z,5.45
2023-02-03T23:40:56.363Z,5.47
2023-02-03T23:43:23.023Z,5.41
2023-02-03T23:45:49.776Z,5.53
2023-02-03T23:48:18.147Z,5.61
2023-02-03T23:50:45.736Z,5.60
2023-02-03T23:53:13.342Z,5.70
2023-02-03T23:55:40.929Z,5.68
2023-02-03T23:58:09.508Z,5.69
